EDDELEIB

Guest
Details From EDDE - Erfurt
To LEIB - Ibiza
Flight Number -
Tags Generated
Created
Modified
Stats Distance 833 nm / 1,542 km
Max Altitude 0 ft / 0 m
Waypoints 5
Social Downloads 2
Likes 0
Share VATSIM

Download

Looking for another format? Having issues loading an existing format? Contact us
Advertisement - Login to hide

Notes

Generated

Route

EDDE BENOT NIVET IBA LEIB

ID Type Via Altitude Latitude Longitude Leg Dist Tot Dist Heading (true) Name
O EDDE APT - 0 ft / 0 m 50.98148˚ 10.93975˚ - 0 nm - -
BENOT FIX - 0 ft / 0 m 47.05778˚ 7.17278˚ 278 nm 278 nm 214° / 211° -
NIVET FIX - 0 ft / 0 m 43.19833˚ 4.04278˚ 266 nm 545 nm 211° / 209° -
IBA VOR - 0 ft / 0 m 38.86834˚ 1.36591˚ 286 nm 832 nm 206° / 204° IBIZA VOR-DME
O LEIB APT - 0 ft / 0 m 38.86694˚ 1.35887˚ 0 nm 832 nm 256° / 256° -

Altitude Profile

Advertisement - Login to hide

Weather


0- 5 10 15 20 25 30 35+ Temperature / ° C

Clouds and Precipitation
Forecast for 2017-12-15 00:00 UTC. Updated an hour ago

Ground ~20,000 ft ~40,000 ft Winds

EDDE

Details ICAO EDDE (ERF)
Name Erfurt
Region Germany - Civil
Timezone Europe/Berlin (UTC+1.0)
Stats Elevation 1,035 ft / 315 m (AMSL)
Location 50.979808° 10.958105°
Runways 1
Magnetic Variation 3.025° E

METAR

EDDE 150020Z 19008KT CAVOK 01/M01 Q0990

Decode

TAF

TAF TAF EDDE 142300Z 1500/1524 22010KT 9999 SCT040 TEMPO 1502/1510 2800 SNRA BKN008 PROB30 TEMPO 1503/1509 1200 SN BKN004

Decode

Departure Runways

ID Width Length Bearing (true) Bearing (mag) Surface Threshold Offset Overrun Length
10 164 ft / 50 m 8,523 ft / 2,598 m 98.24° 95.22° Asphalt 0 ft / 0 m 0 ft / 0 m
28 164 ft / 50 m 8,523 ft / 2,598 m 278.27° 275.25° Asphalt 656 ft / 200 m 0 ft / 0 m

LEIB

Details ICAO LEIB (IBZ)
Name Ibiza
Region Spain
Timezone Europe/Madrid (UTC+1.0)
Stats Elevation 20 ft / 6 m (AMSL)
Location 38.872871° 1.373045°
Runways 1
Magnetic Variation 0.662° E

METAR

LEIB 142300Z 26017KT 9999 FEW025 16/10 Q1013 WS R24 NOSIG

Decode

TAF

TAF LEIB 142000Z 1421/1521 23014KT 9999 FEW030 TX18/1512Z TN08/1506Z TEMPO 1421/1423 26015G25KT TEMPO 1509/1514 25015G25KT BECMG 1513/1515 32009KT

Decode

Destination Runways

ID Width Length Bearing (true) Bearing (mag) Surface Threshold Offset Overrun Length
06 148 ft / 45 m 9,153 ft / 2,790 m 61.85° 61.19° Asphalt 0 ft / 0 m 213 ft / 65 m
24 148 ft / 45 m 9,153 ft / 2,790 m 241.86° 241.20° Asphalt 0 ft / 0 m 197 ft / 60 m

Approach Navaids

Runway Type Ident Frequency Range Bearing (true) Bearing (mag) Slope Elevation
06 Localiser IBI 111.10 MHz 18 nm / 33 km 62.00° 61.34° - 20 ft / 6 m (AMSL)
06 Glidescope IBI 111.10 MHz 10 nm / 19 km 62.00° 61.34° 3.00° 20 ft / 6 m (AMSL)
06 DME IBI 111.10 MHz 18 nm / 33 km - - - 20 ft / 6 m (AMSL)
24 Localiser IBZ 109.50 MHz 18 nm / 33 km 241.81° 241.15° - 15 ft / 5 m (AMSL)
24 Glidescope IBZ 109.50 MHz 10 nm / 19 km 241.86° 241.19° 3.00° 69 ft / 21 m (AMSL)
24 DME IBZ 109.50 MHz 18 nm / 33 km - - - 69 ft / 21 m (AMSL)

Popular Alternatives